Time;durP1;ratioP1;P1;durP2;ratioP2;P2;SDS_P1;SDS_P2;PMS_P1;PMS_P2;Temp;Humidity;BMP_temperature;BMP_pressure;BME280_temperature;BME280_humidity;BME280_pressure;Samples;Min_cycle;Max_cycle;Signal;HPM_P1;HPM_P2
2022/03/16 00:02:21;;;;;;;14.00;9.93;;;7.80;99.90;7.70;101202.00;;;;4957999;28;87987;-64
2022/03/16 00:04:53;;;;;;;11.13;7.63;;;7.80;99.90;7.70;101196.00;;;;4948320;28;87876;-64
2022/03/16 00:07:20;;;;;;;13.57;8.67;;;7.80;99.90;7.70;101190.00;;;;4970009;28;88902;-66
2022/03/16 00:09:46;;;;;;;18.00;9.43;;;7.90;99.90;7.80;101207.00;;;;4956091;28;98272;-65
2022/03/16 00:12:14;;;;;;;15.00;8.83;;;7.90;99.90;7.80;101196.00;;;;4963096;28;88043;-65
2022/03/16 00:14:40;;;;;;;18.03;8.73;;;7.90;99.90;7.80;101196.00;;;;4970364;28;87998;-65
2022/03/16 00:17:07;;;;;;;11.17;8.10;;;7.90;99.90;7.80;101196.00;;;;4953915;28;89140;-66
2022/03/16 00:19:33;;;;;;;13.27;8.70;;;7.80;99.90;7.80;101192.00;;;;4956706;28;95760;-65
2022/03/16 00:22:01;;;;;;;15.97;10.27;;;7.90;99.90;7.80;101191.00;;;;4956365;28;87700;-66
2022/03/16 00:24:27;;;;;;;19.70;10.27;;;7.90;99.90;7.80;101192.00;;;;4955563;28;100857;-65
2022/03/16 00:26:53;;;;;;;19.73;9.50;;;7.90;99.90;7.80;101196.00;;;;4955236;28;89095;-66
2022/03/16 00:29:19;;;;;;;14.90;9.03;;;7.90;99.90;7.80;101196.00;;;;4956332;28;88814;-66
2022/03/16 00:31:45;;;;;;;16.20;8.00;;;7.90;99.90;7.80;101195.00;;;;4954946;28;109074;-66
2022/03/16 00:34:11;;;;;;;15.97;9.07;;;7.90;99.90;7.80;101198.00;;;;4956302;28;100980;-67
2022/03/16 00:36:37;;;;;;;12.20;7.87;;;7.80;99.90;7.80;101194.00;;;;4954926;28;116084;-63
2022/03/16 00:39:04;;;;;;;13.57;8.70;;;7.90;99.90;7.80;101190.00;;;;4956484;28;88695;-65
2022/03/16 00:41:30;;;;;;;12.40;8.97;;;7.90;99.90;7.80;101197.00;;;;4955973;28;93961;-65
2022/03/16 00:43:56;;;;;;;16.17;8.70;;;7.90;99.90;7.80;101195.00;;;;4956172;28;87892;-63
2022/03/16 00:46:21;;;;;;;18.53;10.17;;;7.90;99.90;7.80;101200.00;;;;4955053;28;116877;-64
2022/03/16 00:48:47;;;;;;;13.30;9.63;;;7.90;99.90;7.80;101203.00;;;;4954292;28;117434;-64
2022/03/16 00:51:13;;;;;;;17.93;8.73;;;7.80;99.90;7.80;101207.00;;;;4955562;28;112110;-63
2022/03/16 00:53:40;;;;;;;12.40;9.23;;;7.90;99.90;7.80;101197.00;;;;4955818;28;87979;-63
2022/03/16 00:56:08;;;;;;;15.03;8.53;;;7.90;99.90;7.80;101207.00;;;;4955162;28;89800;-63
2022/03/16 00:58:35;;;;;;;15.93;8.90;;;7.90;99.90;7.80;101207.00;;;;4955369;28;89095;-63
2022/03/16 01:01:01;;;;;;;13.97;8.00;;;7.90;99.90;7.80;101207.00;;;;4955537;28;109322;-63
2022/03/16 01:03:30;;;;;;;14.23;8.17;;;7.90;99.90;7.80;101206.00;;;;4955168;28;87771;-64
2022/03/16 01:05:55;;;;;;;18.33;10.03;;;7.90;99.90;7.80;101206.00;;;;4954536;28;118784;-63
2022/03/16 01:08:21;;;;;;;13.93;8.33;;;7.90;99.90;7.80;101199.00;;;;4954121;28;117164;-62
2022/03/16 01:10:47;;;;;;;15.67;7.77;;;7.90;99.90;7.70;101213.00;;;;4955772;28;91384;-63
2022/03/16 01:13:12;;;;;;;14.63;8.43;;;7.90;99.90;7.70;101211.00;;;;4964751;28;108418;-63
2022/03/16 01:15:38;;;;;;;12.40;8.33;;;7.80;99.90;7.70;101208.00;;;;4952833;28;97055;-63
2022/03/16 01:18:04;;;;;;;14.47;7.47;;;7.80;99.90;7.70;101207.00;;;;4955096;28;89551;-62
2022/03/16 01:20:30;;;;;;;14.27;8.57;;;7.80;99.90;7.70;101208.00;;;;4954893;28;109578;-62
2022/03/16 01:22:56;;;;;;;11.43;8.13;;;7.70;99.90;7.70;101225.00;;;;4955778;28;87693;-62
2022/03/16 01:25:22;;;;;;;21.10;8.20;;;8.10;99.90;7.70;101223.00;;;;4955083;28;110183;-62
2022/03/16 01:27:47;;;;;;;13.90;8.40;;;7.80;99.90;7.70;101224.00;;;;4955573;28;87744;-62
2022/03/16 01:30:13;;;;;;;12.33;7.27;;;7.80;99.90;7.70;101241.00;;;;4955070;28;102870;-62
2022/03/16 01:32:40;;;;;;;14.17;8.97;;;7.80;99.90;7.70;101234.00;;;;4955377;28;87961;-62
2022/03/16 01:35:07;;;;;;;17.50;7.70;;;8.00;99.90;7.70;101239.00;;;;4954331;28;111017;-62
2022/03/16 01:37:33;;;;;;;10.93;7.87;;;7.80;99.90;7.70;101241.00;;;;4955228;28;88501;-62
2022/03/16 01:39:59;;;;;;;16.33;9.10;;;7.80;99.90;7.70;101239.00;;;;4937264;28;87764;-61
2022/03/16 01:42:25;;;;;;;10.60;8.57;;;7.70;99.90;7.70;101239.00;;;;4955778;28;87810;-62
2022/03/16 01:44:54;;;;;;;9.93;7.83;;;7.80;99.90;7.70;101247.00;;;;4954821;28;89794;-62
2022/03/16 01:47:22;;;;;;;13.43;7.60;;;7.70;99.90;7.60;101246.00;;;;4955881;28;89244;-63
2022/03/16 01:49:49;;;;;;;13.33;8.30;;;8.10;99.90;7.60;101255.00;;;;4955580;28;88053;-63
2022/03/16 01:52:20;;;;;;;8.70;6.27;;;7.70;99.90;7.60;101254.00;;;;4955863;28;88081;-62
2022/03/16 01:54:47;;;;;;;13.87;8.00;;;8.00;99.90;7.50;101258.00;;;;4953072;28;90319;-62
2022/03/16 01:57:13;;;;;;;9.67;6.87;;;7.90;99.90;7.50;101252.00;;;;4955465;28;88657;-62
2022/03/16 01:59:40;;;;;;;12.17;8.03;;;7.60;99.90;7.50;101247.00;;;;4955117;28;87798;-63
2022/03/16 02:02:07;;;;;;;10.27;7.33;;;7.60;99.90;7.40;101252.00;;;;4956018;28;87081;-62
2022/03/16 02:04:33;;;;;;;11.10;8.63;;;7.60;99.90;7.40;101270.00;;;;4948111;28;88646;-63
2022/03/16 02:06:59;;;;;;;13.93;7.07;;;7.50;99.90;7.30;101266.00;;;;4933117;28;116170;-61
2022/03/16 02:09:25;;;;;;;11.93;7.23;;;7.50;99.90;7.30;101270.00;;;;4949584;28;97654;-62
2022/03/16 02:11:51;;;;;;;9.97;6.60;;;7.40;99.90;7.30;101280.00;;;;4958760;28;87762;-61
2022/03/16 02:14:17;;;;;;;9.47;6.03;;;7.90;99.90;7.20;101289.00;;;;4960126;28;118249;-62
2022/03/16 02:16:44;;;;;;;14.07;8.30;;;7.40;99.90;7.20;101280.00;;;;4958306;28;89047;-61
2022/03/16 02:19:10;;;;;;;12.27;6.33;;;7.40;99.90;7.10;101291.00;;;;4951633;28;89382;-61
2022/03/16 02:21:38;;;;;;;11.33;7.57;;;7.50;99.90;7.10;101287.00;;;;4958228;28;109571;-61
2022/03/16 02:24:08;;;;;;;12.70;7.23;;;7.30;99.90;7.10;101290.00;;;;4958467;28;89038;-62
2022/03/16 02:26:35;;;;;;;11.10;6.23;;;7.20;99.90;7.10;101290.00;;;;4957896;28;95086;-62
2022/03/16 02:29:00;;;;;;;11.10;6.77;;;7.20;99.90;7.00;101294.00;;;;4957593;28;111701;-62
2022/03/16 02:31:27;;;;;;;14.73;7.30;;;7.20;99.90;7.00;101300.00;;;;4958165;28;108777;-61
2022/03/16 02:33:53;;;;;;;11.93;7.80;;;7.10;99.90;7.00;101306.00;;;;4957988;28;89182;-61
2022/03/16 02:36:19;;;;;;;12.47;7.63;;;7.10;99.90;7.00;101310.00;;;;4957876;28;89302;-61
2022/03/16 02:38:45;;;;;;;15.53;8.33;;;7.10;99.90;7.00;101320.00;;;;4957114;28;103912;-62
2022/03/16 02:41:11;;;;;;;9.87;6.70;;;7.10;99.90;7.00;101313.00;;;;4958895;28;90281;-62
2022/03/16 02:43:37;;;;;;;18.20;8.30;;;7.10;99.90;7.00;101323.00;;;;4958176;28;97377;-61
2022/03/16 02:46:03;;;;;;;9.40;6.83;;;7.10;99.90;6.90;101331.00;;;;4956900;28;87971;-61
2022/03/16 02:48:29;;;;;;;16.10;7.17;;;7.10;99.90;6.90;101328.00;;;;4957975;28;88148;-61
2022/03/16 02:50:55;;;;;;;11.90;6.87;;;7.10;99.90;6.90;101332.00;;;;4958494;28;87078;-60
2022/03/16 02:53:21;;;;;;;12.80;7.93;;;7.00;99.90;6.90;101338.00;;;;4956638;28;107763;-61
2022/03/16 02:55:47;;;;;;;12.53;7.87;;;7.00;99.90;6.90;101346.00;;;;4958007;28;88639;-61
2022/03/16 02:58:15;;;;;;;10.23;7.60;;;7.50;99.90;6.90;101355.00;;;;4955737;28;88691;-61
2022/03/16 03:00:42;;;;;;;12.53;8.27;;;7.50;99.90;6.90;101348.00;;;;4959075;28;87746;-62
2022/03/16 03:03:08;;;;;;;14.27;7.07;;;7.50;99.90;6.90;101351.00;;;;4961519;28;107052;-61
2022/03/16 03:05:33;;;;;;;10.83;7.27;;;7.30;99.90;6.90;101365.00;;;;4946678;28;106936;-62
2022/03/16 03:07:59;;;;;;;11.80;7.00;;;7.60;99.90;6.90;101360.00;;;;4944170;28;87716;-63
2022/03/16 03:10:25;;;;;;;11.77;7.47;;;7.00;99.90;6.90;101358.00;;;;4957792;28;87567;-62
2022/03/16 03:12:51;;;;;;;15.63;8.87;;;7.20;99.90;6.90;101368.00;;;;4966694;28;110055;-62
2022/03/16 03:15:17;;;;;;;14.63;7.70;;;7.00;99.90;6.90;101370.00;;;;4957817;28;95488;-62
2022/03/16 03:17:43;;;;;;;10.80;7.50;;;7.40;99.90;6.90;101379.00;;;;4956640;28;108675;-62
2022/03/16 03:20:10;;;;;;;15.10;7.77;;;7.00;99.90;6.90;101383.00;;;;4958063;28;87874;-62
2022/03/16 03:22:36;;;;;;;11.77;7.77;;;7.00;99.90;6.90;101380.00;;;;4956344;28;108447;-63
2022/03/16 03:25:02;;;;;;;11.60;6.70;;;7.20;99.90;6.90;101385.00;;;;4957362;28;101975;-64
2022/03/16 03:27:30;;;;;;;13.53;7.50;;;7.10;99.90;6.90;101380.00;;;;4957622;28;87893;-61
2022/03/16 03:29:56;;;;;;;12.87;7.47;;;7.30;99.90;6.90;101388.00;;;;4957771;28;87690;-62
2022/03/16 03:32:21;;;;;;;11.00;6.83;;;7.00;99.90;6.90;101392.00;;;;4956820;28;117812;-61
2022/03/16 03:34:51;;;;;;;11.00;7.47;;;7.00;99.90;6.90;101396.00;;;;4956303;28;104443;-60
2022/03/16 03:37:18;;;;;;;13.57;7.67;;;7.00;99.90;6.90;101402.00;;;;4957864;28;87749;-61
2022/03/16 03:39:44;;;;;;;13.03;7.40;;;7.50;99.90;6.90;101404.00;;;;4957906;28;87135;-61
2022/03/16 03:42:10;;;;;;;14.47;7.27;;;7.00;99.90;6.90;101406.00;;;;4957422;28;101767;-62
2022/03/16 03:44:37;;;;;;;13.57;6.90;;;7.00;99.90;6.90;101405.00;;;;4957226;28;90094;-61
2022/03/16 03:47:08;;;;;;;13.27;6.43;;;7.00;99.90;6.80;101412.00;;;;4957235;28;89058;-61
2022/03/16 03:49:36;;;;;;;14.40;7.67;;;7.00;99.90;6.80;101406.00;;;;4957520;28;87701;-62
2022/03/16 03:52:03;;;;;;;11.17;6.97;;;7.00;99.90;6.80;101397.00;;;;4957534;28;99231;-61
2022/03/16 03:54:30;;;;;;;14.20;7.73;;;7.00;99.90;6.80;101412.00;;;;4956953;28;88455;-61
2022/03/16 03:56:56;;;;;;;11.23;6.60;;;7.30;99.90;6.80;101410.00;;;;4957506;28;102431;-61
2022/03/16 03:59:23;;;;;;;12.90;7.40;;;7.40;99.90;6.70;101426.00;;;;4956969;28;97246;-62
2022/03/16 04:01:49;;;;;;;11.83;7.67;;;6.90;99.90;6.70;101422.00;;;;4957144;28;89485;-61
2022/03/16 04:04:14;;;;;;;11.07;7.57;;;7.10;99.90;6.70;101425.00;;;;4952368;28;107930;-62
2022/03/16 04:06:40;;;;;;;12.73;7.00;;;7.00;99.90;6.70;101431.00;;;;4936133;28;110028;-61
2022/03/16 04:09:06;;;;;;;14.10;6.93;;;6.80;99.90;6.60;101437.00;;;;4948783;28;109395;-61
2022/03/16 04:11:32;;;;;;;12.47;6.40;;;7.10;99.90;6.60;101437.00;;;;4955473;28;118014;-61
2022/03/16 04:13:58;;;;;;;10.47;7.20;;;6.80;99.90;6.60;101436.00;;;;4965363;28;89586;-61
2022/03/16 04:16:24;;;;;;;10.03;7.73;;;6.70;99.90;6.60;101432.00;;;;4956214;28;87787;-62
2022/03/16 04:18:50;;;;;;;12.20;6.50;;;6.70;99.90;6.60;101454.00;;;;4956331;28;108585;-62
2022/03/16 04:21:15;;;;;;;14.30;6.90;;;6.70;99.90;6.50;101446.00;;;;4954038;28;111832;-62
2022/03/16 04:23:41;;;;;;;11.07;7.13;;;7.10;99.90;6.50;101449.00;;;;4953901;28;115838;-62
2022/03/16 04:26:08;;;;;;;11.03;7.50;;;7.10;99.90;6.50;101443.00;;;;4955914;28;110451;-62
2022/03/16 04:28:34;;;;;;;15.23;7.23;;;7.20;99.90;6.50;101450.00;;;;4957170;28;86865;-62
2022/03/16 04:31:00;;;;;;;13.43;7.80;;;6.60;99.90;6.50;101451.00;;;;4956597;28;87871;-61
2022/03/16 04:33:29;;;;;;;13.97;8.10;;;6.60;99.90;6.50;101459.00;;;;4956650;28;88637;-61
2022/03/16 04:35:55;;;;;;;11.63;7.63;;;6.70;99.90;6.40;101463.00;;;;4954950;28;88709;-63
2022/03/16 04:38:21;;;;;;;11.33;7.50;;;6.60;99.90;6.40;101459.00;;;;4955760;28;87965;-61
2022/03/16 04:40:47;;;;;;;19.37;6.87;;;6.90;99.90;6.40;101463.00;;;;4955617;28;106389;-62
2022/03/16 04:43:13;;;;;;;11.27;6.93;;;6.60;99.90;6.40;101465.00;;;;4956625;28;100349;-62
2022/03/16 04:45:40;;;;;;;10.13;6.53;;;7.10;99.90;6.30;101485.00;;;;4954166;28;109914;-62
2022/03/16 04:48:08;;;;;;;11.83;7.30;;;6.50;99.90;6.30;101481.00;;;;4956179;28;87501;-62
2022/03/16 04:50:35;;;;;;;11.30;7.50;;;6.40;99.90;6.20;101491.00;;;;4955544;28;89351;-62
2022/03/16 04:53:01;;;;;;;13.27;7.07;;;6.40;99.90;6.10;101491.00;;;;4956595;28;88936;-62
2022/03/16 04:55:26;;;;;;;11.87;7.50;;;6.30;99.90;6.00;101503.00;;;;4955241;28;110627;-62
2022/03/16 04:57:52;;;;;;;14.13;7.27;;;6.20;99.90;6.00;101502.00;;;;4957088;28;87773;-62
2022/03/16 05:00:18;;;;;;;11.63;6.70;;;6.30;99.90;5.90;101508.00;;;;4955083;28;118279;-62
2022/03/16 05:02:44;;;;;;;11.83;8.37;;;6.10;99.90;5.80;101517.00;;;;4954887;28;118197;-62
2022/03/16 05:05:10;;;;;;;11.93;6.67;;;6.00;99.90;5.80;101515.00;;;;4951316;28;87864;-62
2022/03/16 05:07:37;;;;;;;15.13;7.30;;;6.00;99.90;5.80;101516.00;;;;4956277;28;87673;-63
2022/03/16 05:10:07;;;;;;;11.70;8.20;;;6.50;99.90;5.80;101525.00;;;;4955714;28;88991;-61
2022/03/16 05:12:42;;;;;;;15.57;8.37;;;6.00;99.90;5.80;101525.00;;;;4964886;28;88614;-62
2022/03/16 05:15:12;;;;;;;13.53;7.87;;;6.00;99.90;5.80;101543.00;;;;4975704;28;87543;-63
2022/03/16 05:17:38;;;;;;;10.97;7.33;;;6.00;99.90;5.80;101531.00;;;;4973277;28;97987;-62
2022/03/16 05:20:06;;;;;;;11.60;7.00;;;6.00;99.90;5.90;101543.00;;;;4987047;28;88547;-60
2022/03/16 05:22:40;;;;;;;14.47;7.97;;;6.00;99.90;5.90;101545.00;;;;4955745;28;87818;-61
2022/03/16 05:25:06;;;;;;;15.50;8.00;;;6.00;99.90;5.90;101540.00;;;;4954750;28;105239;-60
2022/03/16 05:27:32;;;;;;;12.33;7.97;;;6.00;99.90;5.90;101546.00;;;;4954816;28;101541;-62
2022/03/16 05:29:57;;;;;;;12.13;6.87;;;6.00;99.90;5.90;101546.00;;;;4954831;28;117362;-61
2022/03/16 05:32:23;;;;;;;10.37;7.70;;;6.00;99.90;5.80;101541.00;;;;4954335;28;117538;-62
2022/03/16 05:34:49;;;;;;;11.57;8.03;;;6.00;99.90;5.80;101545.00;;;;4954196;28;109496;-61
2022/03/16 05:37:14;;;;;;;16.17;8.77;;;6.00;99.90;5.80;101539.00;;;;4955092;28;109137;-62
2022/03/16 05:39:40;;;;;;;10.00;6.57;;;6.00;99.90;5.70;101548.00;;;;4954789;28;88900;-62
2022/03/16 05:42:07;;;;;;;9.20;7.23;;;6.00;99.90;5.70;101558.00;;;;4954691;28;117187;-62
2022/03/16 05:44:33;;;;;;;8.23;6.60;;;5.80;99.90;5.60;101556.00;;;;4987299;28;87833;-61
2022/03/16 05:46:59;;;;;;;11.87;7.50;;;5.80;99.90;5.60;101557.00;;;;4955815;28;87764;-62
2022/03/16 05:49:28;;;;;;;9.90;6.97;;;5.80;99.90;5.60;101557.00;;;;4953192;28;119242;-62
2022/03/16 05:51:54;;;;;;;11.40;8.37;;;5.90;99.90;5.60;101574.00;;;;4954726;28;89699;-60
2022/03/16 05:54:20;;;;;;;13.70;8.50;;;5.80;99.90;5.60;101575.00;;;;4955673;28;87681;-63
2022/03/16 05:56:46;;;;;;;19.83;9.27;;;5.70;99.90;5.60;101568.00;;;;4955476;28;87554;-62
2022/03/16 05:59:11;;;;;;;15.77;8.43;;;5.70;99.90;5.60;101562.00;;;;4955392;28;96702;-64
2022/03/16 06:01:37;;;;;;;14.57;8.60;;;5.70;99.90;5.70;101589.00;;;;4954846;28;117101;-62
2022/03/16 06:04:03;;;;;;;14.47;8.00;;;5.80;99.90;5.70;101583.00;;;;4956478;28;111216;-61
2022/03/16 06:06:31;;;;;;;15.40;8.90;;;5.90;99.90;5.80;101593.00;;;;4955602;28;86735;-62
2022/03/16 06:08:57;;;;;;;18.07;9.07;;;6.40;99.90;5.90;101599.00;;;;4955406;28;87776;-62
2022/03/16 06:11:24;;;;;;;17.63;10.40;;;6.00;99.90;6.00;101594.00;;;;4954074;28;108904;-62
2022/03/16 06:13:50;;;;;;;12.07;8.30;;;6.10;99.90;6.10;101586.00;;;;4958216;28;89086;-62
2022/03/16 06:16:15;;;;;;;13.50;8.50;;;6.20;99.90;6.20;101598.00;;;;4954778;28;109477;-63
2022/03/16 06:18:41;;;;;;;13.87;8.30;;;6.60;99.90;6.30;101603.00;;;;4954126;28;112595;-62
2022/03/16 06:21:07;;;;;;;14.07;8.07;;;6.40;99.90;6.50;101603.00;;;;4955480;28;87833;-63
2022/03/16 06:23:34;;;;;;;15.40;9.40;;;6.60;99.90;6.60;101615.00;;;;4955082;28;87807;-62
2022/03/16 06:26:01;;;;;;;14.40;9.23;;;6.70;99.90;6.70;101614.00;;;;4953150;28;87894;-63
2022/03/16 06:28:27;;;;;;;15.07;9.47;;;6.80;99.90;6.90;101618.00;;;;4955237;28;88719;-63
2022/03/16 06:30:52;;;;;;;18.37;10.27;;;7.00;99.90;7.10;101622.00;;;;4955333;28;93660;-62
2022/03/16 06:33:18;;;;;;;18.47;10.23;;;7.20;99.90;7.20;101631.00;;;;4953600;28;108538;-61
2022/03/16 06:35:44;;;;;;;14.80;10.30;;;7.30;99.90;7.40;101622.00;;;;4954250;28;87913;-61
2022/03/16 06:38:11;;;;;;;16.43;11.30;;;7.50;99.90;7.60;101614.00;;;;4954135;28;88569;-63
2022/03/16 06:40:37;;;;;;;15.57;10.57;;;7.70;99.90;7.80;101621.00;;;;4954282;28;89736;-62
2022/03/16 06:43:02;;;;;;;19.97;11.40;;;7.90;99.90;8.00;101615.00;;;;4953946;28;87742;-63
2022/03/16 06:45:29;;;;;;;20.27;11.23;;;8.10;99.90;8.20;101621.00;;;;4953197;28;97161;-63
2022/03/16 06:47:58;;;;;;;20.40;11.83;;;8.30;99.90;8.40;101627.00;;;;4952562;28;87752;-62
2022/03/16 06:50:25;;;;;;;21.80;13.73;;;8.40;99.90;8.60;101629.00;;;;4954249;28;87672;-62
2022/03/16 06:52:53;;;;;;;18.57;12.67;;;8.70;99.90;8.80;101628.00;;;;4954100;28;87856;-63
2022/03/16 06:55:19;;;;;;;18.73;12.63;;;8.80;99.90;9.00;101623.00;;;;4954458;28;86975;-62
2022/03/16 06:57:44;;;;;;;25.07;13.27;;;9.00;99.90;9.20;101627.00;;;;4954038;28;93508;-64
2022/03/16 07:00:13;;;;;;;23.77;14.57;;;9.20;99.90;9.40;101627.00;;;;4952880;28;114802;-64
2022/03/16 07:03:00;;;;;;;34.43;14.83;;;9.50;99.90;9.70;101627.00;;;;4956977;28;88759;-62
2022/03/16 07:05:35;;;;;;;28.30;14.60;;;9.80;99.90;9.90;101636.00;;;;4955291;28;87639;-63
2022/03/16 07:08:07;;;;;;;21.40;11.70;;;9.90;99.90;10.00;101642.00;;;;4957957;28;87887;-63
2022/03/16 07:10:35;;;;;;;19.73;11.83;;;10.10;99.90;10.10;101639.00;;;;4957120;28;87816;-63
2022/03/16 07:13:01;;;;;;;22.27;10.10;;;10.20;99.90;10.20;101646.00;;;;4969474;28;87874;-65
2022/03/16 07:15:30;;;;;;;20.20;11.67;;;10.30;99.90;10.40;101639.00;;;;4977148;28;87657;-63
2022/03/16 07:17:56;;;;;;;16.67;10.37;;;10.40;99.90;10.60;101656.00;;;;4974896;28;88357;-63
2022/03/16 07:20:22;;;;;;;21.23;12.20;;;10.60;99.90;10.70;101658.00;;;;4963360;28;109775;-64
2022/03/16 07:23:09;;;;;;;20.07;10.77;;;10.80;99.90;10.90;101657.00;;;;4956172;28;112038;-62
2022/03/16 07:25:40;;;;;;;21.63;10.40;;;10.90;99.90;11.10;101668.00;;;;4956453;28;87461;-62
2022/03/16 07:28:07;;;;;;;18.80;10.20;;;11.10;99.90;11.30;101669.00;;;;4956339;28;101071;-62
2022/03/16 07:30:33;;;;;;;14.83;10.67;;;11.30;99.90;11.40;101669.00;;;;4956522;28;88921;-62
2022/03/16 07:32:59;;;;;;;14.27;9.60;;;11.40;99.90;11.60;101665.00;;;;4957204;28;87687;-63
2022/03/16 07:35:27;;;;;;;14.30;9.97;;;11.60;99.90;11.80;101670.00;;;;4957068;28;99976;-62
2022/03/16 07:37:55;;;;;;;16.90;9.70;;;11.80;99.90;12.00;101673.00;;;;4956790;28;88927;-62
2022/03/16 07:40:22;;;;;;;15.30;8.87;;;12.00;99.90;12.20;101674.00;;;;4957453;28;88390;-63
2022/03/16 07:42:51;;;;;;;13.50;7.17;;;12.20;99.90;12.40;101681.00;;;;4962657;28;87674;-62
2022/03/16 07:45:21;;;;;;;17.93;7.87;;;12.40;99.90;12.60;101682.00;;;;4964111;28;86741;-64
2022/03/16 07:47:49;;;;;;;13.00;7.60;;;12.60;99.90;12.90;101686.00;;;;4979630;28;87830;-65
2022/03/16 07:50:19;;;;;;;17.70;8.57;;;12.90;99.90;13.20;101685.00;;;;4963440;28;87579;-64
2022/03/16 07:52:46;;;;;;;13.80;7.57;;;13.10;99.90;13.40;101696.00;;;;4963417;28;88300;-65
2022/03/16 07:55:16;;;;;;;13.60;8.17;;;13.40;99.90;13.60;101688.00;;;;4964903;28;87433;-64
2022/03/16 07:57:43;;;;;;;11.07;7.40;;;13.60;99.90;13.80;101695.00;;;;4962452;28;87471;-64
2022/03/16 08:00:12;;;;;;;10.87;7.13;;;13.80;99.90;14.00;101692.00;;;;4960875;28;87464;-64
2022/03/16 08:02:39;;;;;;;11.37;7.63;;;14.00;99.90;14.30;101697.00;;;;4978802;27;87305;-64
2022/03/16 08:05:06;;;;;;;12.95;7.90;;;14.20;99.90;14.50;101699.00;;;;4948324;28;87528;-61
2022/03/16 08:07:32;;;;;;;11.93;7.30;;;14.40;99.90;14.70;101696.00;;;;4937088;28;88568;-61
2022/03/16 08:09:59;;;;;;;11.20;6.40;;;14.70;99.90;14.90;101706.00;;;;4937392;28;100715;-61
2022/03/16 08:12:25;;;;;;;10.40;6.97;;;14.90;99.90;15.20;101714.00;;;;4950976;28;87708;-62
2022/03/16 08:14:51;;;;;;;11.77;6.80;;;15.10;99.90;15.40;101710.00;;;;4977696;28;87598;-62
2022/03/16 08:17:18;;;;;;;15.02;8.00;;;15.40;99.90;15.60;101707.00;;;;4976220;28;88773;-62
2022/03/16 08:19:43;;;;;;;11.35;7.15;;;15.60;99.90;15.80;101716.00;;;;4968504;28;87980;-62
2022/03/16 08:22:09;;;;;;;8.85;6.32;;;15.70;99.90;15.90;101719.00;;;;4956067;28;110118;-61
2022/03/16 08:24:35;;;;;;;13.55;7.03;;;15.90;99.90;16.10;101715.00;;;;4956175;28;106806;-61
2022/03/16 08:27:01;;;;;;;12.07;7.03;;;16.10;99.90;16.30;101723.00;;;;4954285;28;116270;-62
2022/03/16 08:29:26;;;;;;;12.57;6.68;;;16.20;99.90;16.40;101725.00;;;;4955068;28;116051;-62
2022/03/16 08:31:53;;;;;;;10.40;6.32;;;16.40;99.90;16.60;101738.00;;;;4954060;28;109433;-63
2022/03/16 08:34:19;;;;;;;15.60;7.10;;;16.60;99.90;16.80;101738.00;;;;4956988;28;86878;-62
2022/03/16 08:36:45;;;;;;;10.98;7.05;;;16.70;99.90;16.80;101734.00;;;;4955627;28;87797;-60
2022/03/16 08:39:11;;;;;;;10.63;6.90;;;16.80;99.90;16.70;101734.00;;;;4955510;28;117078;-61
2022/03/16 08:41:37;;;;;;;14.02;7.47;;;16.70;99.90;16.70;101741.00;;;;4956630;28;103543;-61
2022/03/16 08:44:03;;;;;;;11.38;7.57;;;16.70;96.30;16.50;101741.00;;;;4956156;28;98171;-61
2022/03/16 08:46:30;;;;;;;10.02;6.55;;;16.60;95.40;16.50;101745.00;;;;4957064;28;110363;-63
2022/03/16 08:48:56;;;;;;;15.23;7.65;;;16.50;96.70;16.60;101739.00;;;;4956576;28;88754;-61
2022/03/16 08:51:22;;;;;;;12.48;7.25;;;16.60;96.10;16.50;101750.00;;;;4959082;28;91218;-62
2022/03/16 08:53:49;;;;;;;11.45;5.85;;;16.50;94.60;16.40;101743.00;;;;4957900;28;87248;-61
2022/03/16 08:56:16;;;;;;;10.15;7.53;;;16.40;95.20;16.30;101749.00;;;;4955437;28;89069;-61
2022/03/16 08:58:43;;;;;;;15.80;7.93;;;16.30;93.80;16.30;101739.00;;;;4956552;28;88679;-61
2022/03/16 09:01:09;;;;;;;8.75;6.45;;;16.30;93.90;16.20;101740.00;;;;4958839;28;87067;-65
2022/03/16 09:03:35;;;;;;;12.65;7.53;;;16.20;94.00;16.20;101742.00;;;;4956538;28;87386;-63
2022/03/16 09:06:02;;;;;;;11.77;7.18;;;16.20;94.40;16.30;101746.00;;;;4939381;28;117758;-65
2022/03/16 09:08:29;;;;;;;10.80;7.45;;;16.20;94.50;16.60;101746.00;;;;4957862;28;88046;-64
2022/03/16 09:10:56;;;;;;;11.43;7.57;;;16.40;92.50;16.70;101732.00;;;;4957317;28;101297;-64
2022/03/16 09:13:22;;;;;;;14.70;7.53;;;16.50;93.10;16.90;101734.00;;;;4970153;28;87122;-63
2022/03/16 09:15:51;;;;;;;15.00;8.40;;;16.70;89.00;16.80;101747.00;;;;4972925;28;88508;-64
2022/03/16 09:18:18;;;;;;;14.70;7.90;;;16.60;87.70;16.80;101743.00;;;;4959031;28;87861;-64
2022/03/16 09:20:45;;;;;;;14.77;8.43;;;16.70;90.00;16.80;101746.00;;;;4959512;28;87270;-63
2022/03/16 09:23:11;;;;;;;13.85;7.05;;;16.70;83.10;16.70;101746.00;;;;4957531;28;86752;-63
2022/03/16 09:25:38;;;;;;;12.85;7.30;;;16.60;81.00;16.60;101745.00;;;;4956822;28;87654;-64
2022/03/16 09:28:04;;;;;;;12.45;7.63;;;16.80;80.30;16.50;101753.00;;;;4959467;28;87567;-64
2022/03/16 09:30:30;;;;;;;13.05;7.82;;;16.40;82.50;16.40;101753.00;;;;4958647;28;88020;-63
2022/03/16 09:32:57;;;;;;;11.60;6.82;;;16.40;78.30;16.20;101750.00;;;;4957347;28;87361;-63
2022/03/16 09:35:24;;;;;;;18.67;8.65;;;16.20;79.80;16.30;101757.00;;;;4956981;28;89661;-63
2022/03/16 09:37:50;;;;;;;12.70;7.25;;;16.20;83.80;16.60;101761.00;;;;4960105;28;87099;-64
2022/03/16 09:40:20;;;;;;;17.52;7.40;;;16.40;86.50;16.90;101748.00;;;;4940593;28;87563;-64
2022/03/16 09:42:48;;;;;;;14.20;8.65;;;16.70;82.60;17.00;101757.00;;;;4959466;28;87077;-64
2022/03/16 09:45:22;;;;;;;17.33;9.35;;;16.80;80.30;17.00;101756.00;;;;4956842;28;87667;-63
2022/03/16 09:47:49;;;;;;;10.40;7.22;;;16.80;76.10;17.10;101758.00;;;;4956861;28;86669;-63
2022/03/16 09:50:20;;;;;;;14.15;7.90;;;16.90;79.40;17.50;101760.00;;;;4958487;28;87064;-61
2022/03/16 09:52:48;;;;;;;11.10;7.50;;;17.10;78.30;17.70;101763.00;;;;4959017;28;87651;-62
2022/03/16 09:55:17;;;;;;;14.50;7.63;;;17.40;77.70;18.10;101758.00;;;;4956338;28;88964;-62
2022/03/16 09:57:43;;;;;;;13.57;7.32;;;17.70;76.00;18.30;101764.00;;;;4955816;28;88504;-62
2022/03/16 10:00:13;;;;;;;11.88;7.47;;;17.90;69.00;18.20;101768.00;;;;4956013;28;87388;-64
2022/03/16 10:02:40;;;;;;;12.63;8.15;;;17.90;65.70;18.10;101764.00;;;;4972837;28;87852;-65
2022/03/16 10:05:10;;;;;;;10.45;6.50;;;17.90;67.30;18.20;101768.00;;;;4946807;28;88539;-62
2022/03/16 10:07:37;;;;;;;12.70;6.55;;;17.80;67.00;18.10;101769.00;;;;4966195;28;87355;-65
2022/03/16 10:15:37;;;;;;;12.32;8.82;;;17.70;61.30;17.50;101759.00;;;;4952615;28;87587;-62
2022/03/16 10:18:03;;;;;;;18.17;7.70;;;17.30;62.20;17.30;101762.00;;;;4988185;28;89169;-65
2022/03/16 10:20:42;;;;;;;12.07;6.93;;;17.20;65.90;17.40;101772.00;;;;4954240;28;88107;-64
2022/03/16 10:23:14;;;;;;;12.02;7.07;;;17.10;68.30;17.50;101770.00;;;;4956084;28;87300;-64
2022/03/16 10:25:51;;;;;;;9.07;6.40;;;17.10;66.50;17.50;101769.00;;;;4954545;28;88113;-65
2022/03/16 10:28:27;;;;;;;13.52;7.30;;;17.20;67.90;17.50;101770.00;;;;4951851;28;96136;-64
2022/03/16 10:30:57;;;;;;;11.02;6.07;;;17.20;67.10;17.30;101775.00;;;;4955844;28;87746;-64
2022/03/16 10:33:50;;;;;;;9.43;6.40;;;17.10;66.80;17.60;101784.00;;;;4954873;28;87766;-63
2022/03/16 10:36:22;;;;;;;13.52;7.38;;;17.20;69.00;18.00;101791.00;;;;4986569;27;88036;-64
2022/03/16 10:38:53;;;;;;;8.57;6.05;;;17.50;69.70;18.40;101775.00;;;;4958207;28;87001;-64
2022/03/16 10:47:21;;;;;;;6.95;4.70;;;18.60;65.50;19.20;101788.00;;;;4960398;28;88896;-63
2022/03/16 10:50:01;;;;;;;6.97;5.28;;;18.80;62.30;19.00;101776.00;;;;4957567;28;118583;-63
2022/03/16 10:52:31;;;;;;;6.88;5.32;;;18.70;59.40;18.80;101781.00;;;;4958097;28;87723;-63
2022/03/16 10:54:57;;;;;;;9.45;5.65;;;18.50;60.00;18.40;101781.00;;;;4956951;28;88065;-63
2022/03/16 10:57:24;;;;;;;11.57;5.60;;;18.20;59.10;18.20;101771.00;;;;4954538;28;117705;-64
2022/03/16 10:59:52;;;;;;;10.30;5.40;;;17.90;60.90;18.10;101765.00;;;;4956139;28;87709;-64